YOSEMITE NATIONAL PARK, CA

2:32 AM PDT on October 24, 2014 (GMT -0700)
RAWS CRANE CA US | Change Station
CLOSE
Current Station
Personal Weather Station
Location: El Portal, CA
Elevation: 6633 ft
Nearby Weather Stations

Elev 6633 ft 37.76 °N, 119.82 °W | Updated 32 minutes ago

Clear
Clear
56 °F
Feels Like 56 °F
N
12
Wind Variable Wind from SSE
Gusts 21.0 mph

Today
High -- | Low -- °F
--% Chance of Precip.
Yesterday
High -- | Low -- °F
Precip. -- in
7:15 AM 6:09 PM
New Moon, 0% visible
Pressure 30.24 in
Visibility 10.0 miles
Clouds Clear
Dew Point 20 °F
Humidity 24%
Rainfall 0.00 in
Snow Depth Not available.
UV 0 out of 12
Pollen 2.60 out of 12
Air Quality Not available.
Flu Activity Sporadic
METAR KMMH 240915Z AUTO 00000KT 10SM CLR 03/M08 A3024 RMK AO1

More Conditions Fewer Conditions

Pressure 30.24 in
Visibility 10.0 miles
Clouds Clear
Dew Point 20 °F
Humidity 24%
Rainfall 0.00 in
Snow Depth Not available.
UV 0 out of 12
Pollen 2.60 out of 12
Air Quality Not available.
Flu Activity Sporadic
METAR KMMH 240915Z AUTO 00000KT 10SM CLR 03/M08 A3024 RMK AO1

More Conditions Fewer Conditions

10-Day Weather Forecast

Almanac

Astronomy

Oct. 24, 2014 Rise Set
Actual Time 7:15 AM PDT 6:09 PM PDT
Civil Twilight 6:49 AM PDT 6:36 PM PDT
Nautical Twilight 6:18 AM PDT 7:06 PM PDT
Astronomical Twilight 5:48 AM PDT 7:37 PM PDT
Moon 7:59 AM PDT 6:53 PM PDT
Length of Visible Light 11h 46m
Length of Day
10h 53m
Tomorrow will be 2m 14s shorter.
New Moon, 0% of the Moon is Illuminated
Today
New Moon
Oct 30
First Quarter
Nov 6
Full
Nov 14
Last Quarter
Nov 22
New

Today's Extremes

State Highs State Lows

Community

WunderPhotos

Upload Photos

1,764,513 photos uploaded!

WunderBlogs® & News

Nearby

Snow Depth

Station Depth Elevation
Leavitt Lake 1 in 9400 ft
Leavitt Meadows 1 in 7200 ft
Summit Meadow 1 in 9122 ft
Poison Flat 0 in 7900 ft
Ebbetts Pass 0 in 8700 ft

Earthquake Activity

City Distance Mag. Time & Date
Kettleman City, California 128 miles 2.5 9:08 AM PDT
2014-10-22
Mammoth Lakes, California 52 miles 3.0 11:10 PM PDT
2014-10-20
Minimum magnitude displayed is 2.5.

Coastal Water Temperatures

Place Temperature
No Stations Reporting

Nearby Weather Stations